createdAt,value
2022-09-09T00:01:47.299Z,1.33
2022-09-09T00:04:17.710Z,1.48
2022-09-09T00:06:48.666Z,1.27
2022-09-09T00:09:19.239Z,1.45
2022-09-09T00:11:51.575Z,1.30
2022-09-09T00:14:25.593Z,1.20
2022-09-09T00:16:58.103Z,1.50
2022-09-09T00:19:31.099Z,1.40
2022-09-09T00:22:08.630Z,1.30
2022-09-09T00:24:41.307Z,1.40
2022-09-09T00:27:13.234Z,1.37
2022-09-09T00:29:46.257Z,1.50
2022-09-09T00:32:19.536Z,1.60
2022-09-09T00:34:50.732Z,1.55
2022-09-09T00:37:18.648Z,1.30
2022-09-09T00:39:49.120Z,1.50
2022-09-09T00:42:19.091Z,1.50
2022-09-09T00:44:55.473Z,1.30
2022-09-09T00:47:37.725Z,1.35
2022-09-09T00:50:14.153Z,1.50
2022-09-09T00:52:47.541Z,1.45
2022-09-09T00:55:19.915Z,1.25
2022-09-09T00:57:48.686Z,1.30
2022-09-09T01:00:22.917Z,1.10
2022-09-09T01:03:29.560Z,1.15
2022-09-09T01:06:04.350Z,1.30
2022-09-09T01:08:48.326Z,1.20
2022-09-09T01:11:22.680Z,1.27
2022-09-09T01:13:56.065Z,1.30
2022-09-09T01:16:24.196Z,1.60
2022-09-09T01:18:54.998Z,1.50
2022-09-09T01:21:30.021Z,1.52
2022-09-09T01:24:10.870Z,1.60
2022-09-09T01:26:57.338Z,1.67
2022-09-09T01:29:27.830Z,1.52
2022-09-09T01:31:57.446Z,1.75
2022-09-09T01:34:26.900Z,1.70
2022-09-09T01:36:59.559Z,1.70
2022-09-09T01:39:28.221Z,1.85
2022-09-09T01:42:04.063Z,1.70
2022-09-09T01:44:32.345Z,1.95
2022-09-09T01:47:00.241Z,1.80
2022-09-09T01:49:28.192Z,1.80
2022-09-09T01:51:58.100Z,1.70
2022-09-09T01:54:34.793Z,1.80
2022-09-09T01:57:15.421Z,2.03
2022-09-09T01:59:56.528Z,1.60
2022-09-09T02:02:29.110Z,1.60
2022-09-09T02:05:16.181Z,1.60
2022-09-09T02:07:46.909Z,1.80
2022-09-09T02:10:31.095Z,1.70
2022-09-09T02:13:13.387Z,1.50
2022-09-09T02:15:45.795Z,1.60
2022-09-09T02:18:15.487Z,1.40
2022-09-09T02:20:45.016Z,1.70
2022-09-09T02:23:13.737Z,1.75
2022-09-09T02:25:42.653Z,1.60
2022-09-09T02:28:22.294Z,1.60
2022-09-09T02:30:54.365Z,1.40
2022-09-09T02:33:23.584Z,1.42
2022-09-09T02:35:53.599Z,1.60
2022-09-09T02:38:26.747Z,1.40
2022-09-09T02:41:03.501Z,1.60
2022-09-09T02:43:35.410Z,1.50
2022-09-09T02:46:12.758Z,1.40
2022-09-09T02:48:47.127Z,1.35
2022-09-09T02:51:20.022Z,1.45
2022-09-09T02:53:52.601Z,1.45
2022-09-09T02:56:23.410Z,1.40
2022-09-09T02:58:52.849Z,1.33
2022-09-09T03:01:20.811Z,1.40
2022-09-09T03:03:49.018Z,1.52
2022-09-09T03:06:18.352Z,1.50
2022-09-09T03:08:50.932Z,1.50
2022-09-09T03:11:24.131Z,1.50
2022-09-09T03:13:54.203Z,1.40
2022-09-09T03:16:22.920Z,1.20
2022-09-09T03:18:53.287Z,1.65
2022-09-09T03:21:21.912Z,1.52
2022-09-09T03:23:50.854Z,1.42
2022-09-09T03:26:18.741Z,1.40
2022-09-09T03:28:48.143Z,1.40
2022-09-09T03:31:20.872Z,1.50
2022-09-09T03:33:48.909Z,1.50
2022-09-09T03:36:18.279Z,1.40
2022-09-09T03:38:46.244Z,1.80
2022-09-09T03:41:14.541Z,1.40
2022-09-09T03:43:42.832Z,1.55
2022-09-09T03:46:10.663Z,1.40
2022-09-09T03:48:40.413Z,1.60
2022-09-09T03:51:08.187Z,1.60
2022-09-09T03:53:36.737Z,1.50
2022-09-09T03:56:05.161Z,1.40
2022-09-09T03:58:33.145Z,1.65
2022-09-09T04:01:08.950Z,1.53
2022-09-09T04:03:37.498Z,1.57
2022-09-09T04:06:10.573Z,1.55
2022-09-09T04:08:39.502Z,1.70
2022-09-09T04:11:08.547Z,1.95
2022-09-09T04:13:38.661Z,1.90
2022-09-09T04:16:07.144Z,1.27
2022-09-09T04:18:37.028Z,1.70
2022-09-09T04:21:07.985Z,1.67
2022-09-09T04:23:37.075Z,1.60
2022-09-09T04:26:06.435Z,1.80
2022-09-09T04:28:37.045Z,1.53
2022-09-09T04:31:08.788Z,1.45
2022-09-09T04:33:40.298Z,1.77
2022-09-09T04:36:10.403Z,1.70
2022-09-09T04:38:38.876Z,1.73
2022-09-09T04:41:08.203Z,1.80
2022-09-09T04:43:38.385Z,1.40
2022-09-09T04:46:08.536Z,1.60
2022-09-09T04:48:36.905Z,1.48
2022-09-09T04:51:08.977Z,1.67
2022-09-09T04:53:39.411Z,1.57
2022-09-09T04:56:08.754Z,1.50
2022-09-09T04:58:42.798Z,1.60
2022-09-09T05:01:13.161Z,1.67
2022-09-09T05:03:43.051Z,1.50
2022-09-09T05:06:15.086Z,1.80
2022-09-09T05:08:46.338Z,1.70
2022-09-09T05:11:18.756Z,1.93
2022-09-09T05:13:47.789Z,2.13
2022-09-09T05:16:16.315Z,1.83
2022-09-09T05:18:44.753Z,2.00
2022-09-09T05:21:12.721Z,1.80
2022-09-09T05:23:40.717Z,1.80
2022-09-09T05:26:17.515Z,1.80
2022-09-09T05:28:47.848Z,2.33
2022-09-09T05:31:17.966Z,1.95
2022-09-09T05:33:50.240Z,1.80
2022-09-09T05:36:19.865Z,1.70
2022-09-09T05:38:50.215Z,1.73
2022-09-09T05:41:21.006Z,1.58
2022-09-09T05:43:49.771Z,1.70
2022-09-09T05:46:19.724Z,1.67
2022-09-09T05:48:51.633Z,1.80
2022-09-09T05:51:22.779Z,1.60
2022-09-09T05:53:51.979Z,2.33
2022-09-09T05:56:23.540Z,1.88
2022-09-09T05:58:52.711Z,1.63
2022-09-09T06:01:22.182Z,1.80
2022-09-09T06:03:51.185Z,1.65
2022-09-09T06:06:22.360Z,1.80
2022-09-09T06:08:52.440Z,1.60
2022-09-09T06:11:23.087Z,1.40
2022-09-09T06:13:52.535Z,1.80
2022-09-09T06:16:21.722Z,1.60
2022-09-09T06:18:50.108Z,1.50
2022-09-09T06:21:19.400Z,1.60
2022-09-09T06:23:49.108Z,1.60
2022-09-09T06:26:19.039Z,1.65
2022-09-09T06:28:50.312Z,1.85
2022-09-09T06:31:24.112Z,1.70
2022-09-09T06:33:56.561Z,1.70
2022-09-09T06:36:26.903Z,1.65
2022-09-09T06:38:55.193Z,1.60
2022-09-09T06:41:24.550Z,1.65
2022-09-09T06:43:53.985Z,1.80
2022-09-09T06:46:31.115Z,1.45
2022-09-09T06:49:00.717Z,1.50
2022-09-09T06:51:29.862Z,1.25
2022-09-09T06:54:00.513Z,1.58
2022-09-09T06:56:31.067Z,1.30
2022-09-09T06:59:04.743Z,1.80
2022-09-09T07:01:34.658Z,1.42
2022-09-09T07:04:08.912Z,1.43
2022-09-09T07:06:39.581Z,1.60
2022-09-09T07:09:10.262Z,1.52
2022-09-09T07:11:43.285Z,1.42
2022-09-09T07:14:14.921Z,1.40
2022-09-09T07:16:46.792Z,1.23
2022-09-09T07:19:16.924Z,1.30
2022-09-09T07:21:46.165Z,1.50
2022-09-09T07:24:16.644Z,1.47
2022-09-09T07:26:46.685Z,1.60
2022-09-09T07:29:20.035Z,1.27
2022-09-09T07:31:49.713Z,1.55
2022-09-09T07:34:22.954Z,1.10
2022-09-09T07:36:50.798Z,1.63
2022-09-09T07:39:20.033Z,1.30
2022-09-09T07:41:51.963Z,1.80
2022-09-09T07:44:25.739Z,1.30
2022-09-09T07:47:01.050Z,1.33
2022-09-09T07:49:35.790Z,1.40
2022-09-09T07:52:08.821Z,1.10
2022-09-09T07:54:38.169Z,1.52
2022-09-09T07:57:08.002Z,1.23
2022-09-09T07:59:39.152Z,1.38
2022-09-09T08:02:07.673Z,1.52
2022-09-09T08:04:37.185Z,1.20
2022-09-09T08:07:05.692Z,1.48
2022-09-09T08:09:40.348Z,1.50
2022-09-09T08:12:14.329Z,1.60
2022-09-09T08:14:43.834Z,1.80
2022-09-09T08:17:11.904Z,1.67
2022-09-09T08:19:40.087Z,1.40
2022-09-09T08:22:15.056Z,1.70
2022-09-09T08:24:43.272Z,1.40
2022-09-09T08:27:11.579Z,1.55
2022-09-09T08:29:40.353Z,1.63
2022-09-09T08:32:09.691Z,1.70
2022-09-09T08:34:41.253Z,1.50
2022-09-09T08:37:20.392Z,1.52
2022-09-09T08:39:53.964Z,1.60
2022-09-09T08:42:34.949Z,1.60
2022-09-09T08:45:30.874Z,1.30
2022-09-09T08:48:18.698Z,1.60
2022-09-09T08:50:48.420Z,1.42
2022-09-09T08:53:22.820Z,1.77
2022-09-09T08:55:54.017Z,1.67
2022-09-09T08:58:30.346Z,1.33
2022-09-09T09:01:30.190Z,1.50
2022-09-09T09:04:08.590Z,1.55
2022-09-09T09:06:46.141Z,1.50
2022-09-09T09:09:19.433Z,1.60
2022-09-09T09:11:50.381Z,1.48
2022-09-09T09:14:22.315Z,1.30
2022-09-09T09:16:53.964Z,1.50
2022-09-09T09:19:26.235Z,1.60
2022-09-09T09:22:00.698Z,1.67
2022-09-09T09:24:35.597Z,1.40
2022-09-09T09:27:13.561Z,1.42
2022-09-09T09:30:10.055Z,1.33
2022-09-09T09:32:36.109Z,1.40
2022-09-09T09:35:12.349Z,1.30
2022-09-09T09:40:35.204Z,1.55
2022-09-09T09:43:08.810Z,2.00
2022-09-09T09:45:46.761Z,1.40
2022-09-09T09:48:24.056Z,1.58
2022-09-09T09:50:54.676Z,1.43
2022-09-09T09:53:25.711Z,1.30
2022-09-09T09:56:00.073Z,1.55
2022-09-09T09:58:30.917Z,1.60
2022-09-09T10:00:59.677Z,1.50
2022-09-09T10:03:31.604Z,1.45
2022-09-09T10:06:01.762Z,1.33
2022-09-09T10:08:30.390Z,1.50
2022-09-09T10:11:24.561Z,1.60
2022-09-09T10:13:58.729Z,1.70
2022-09-09T10:16:43.352Z,1.40
2022-09-09T10:19:14.740Z,1.40
2022-09-09T10:22:18.579Z,1.38
2022-09-09T10:25:14.021Z,1.73
2022-09-09T10:27:54.257Z,1.50
2022-09-09T10:30:26.775Z,1.55
2022-09-09T10:33:00.055Z,1.40
2022-09-09T10:35:32.347Z,1.48
2022-09-09T10:38:14.746Z,1.30
2022-09-09T10:40:46.881Z,1.13
2022-09-09T10:43:27.622Z,1.10
2022-09-09T10:46:04.269Z,1.30
2022-09-09T10:48:46.662Z,1.27
2022-09-09T10:51:25.773Z,1.27
2022-09-09T10:54:08.983Z,1.42
2022-09-09T10:56:37.060Z,1.20
2022-09-09T10:59:08.692Z,1.45
2022-09-09T11:01:39.906Z,1.27
2022-09-09T11:04:12.089Z,1.20
2022-09-09T11:06:44.371Z,1.38
2022-09-09T11:09:18.652Z,0.90
2022-09-09T11:11:49.342Z,1.00
2022-09-09T11:14:21.931Z,1.00
2022-09-09T11:16:52.840Z,1.20
2022-09-09T11:19:26.365Z,1.02
2022-09-09T11:21:55.797Z,1.10
2022-09-09T11:24:28.047Z,1.00
2022-09-09T11:26:58.715Z,1.30
2022-09-09T11:29:54.885Z,1.20
2022-09-09T11:32:51.136Z,1.20
2022-09-09T11:35:31.487Z,1.20
2022-09-09T11:38:12.054Z,1.30
2022-09-09T11:40:41.651Z,1.30
2022-09-09T11:43:13.710Z,1.30
2022-09-09T11:45:42.899Z,1.15
2022-09-09T11:48:25.898Z,0.90
2022-09-09T11:51:01.284Z,1.20
2022-09-09T11:53:29.177Z,1.07
2022-09-09T11:56:10.240Z,0.93
2022-09-09T11:58:56.754Z,1.10
2022-09-09T12:01:31.286Z,1.00
2022-09-09T12:04:11.844Z,0.88
2022-09-09T12:06:46.493Z,0.80
2022-09-09T12:09:24.216Z,1.03
2022-09-09T12:11:53.549Z,0.90
2022-09-09T12:14:23.727Z,1.10
2022-09-09T12:16:51.936Z,0.95
2022-09-09T12:19:24.807Z,0.98
2022-09-09T12:22:01.952Z,1.00
2022-09-09T12:24:34.784Z,1.00
2022-09-09T12:27:08.925Z,0.95
2022-09-09T12:29:42.440Z,1.00
2022-09-09T12:32:12.985Z,0.90
2022-09-09T12:34:42.113Z,0.90
2022-09-09T12:37:19.117Z,0.90
2022-09-09T12:39:50.380Z,1.00
2022-09-09T12:42:21.310Z,1.45
2022-09-09T12:44:59.498Z,0.93
2022-09-09T12:47:36.016Z,1.13
2022-09-09T12:50:04.158Z,1.00
2022-09-09T12:52:35.198Z,1.00
2022-09-09T12:55:04.416Z,1.27
2022-09-09T12:57:37.364Z,1.20
2022-09-09T13:00:12.345Z,1.20
2022-09-09T13:02:48.494Z,1.10
2022-09-09T13:05:19.046Z,1.10
2022-09-09T13:07:46.845Z,1.13
2022-09-09T13:10:21.481Z,1.20
2022-09-09T13:13:00.761Z,1.08
2022-09-09T13:15:30.742Z,1.17
2022-09-09T13:18:01.664Z,1.25
2022-09-09T13:20:31.962Z,1.30
2022-09-09T13:22:59.946Z,1.10
2022-09-09T13:25:29.757Z,1.00
2022-09-09T13:28:03.585Z,1.00
2022-09-09T13:30:33.266Z,1.13
2022-09-09T13:33:23.495Z,1.20
2022-09-09T13:35:54.138Z,1.27
2022-09-09T13:38:27.040Z,1.27
2022-09-09T13:40:58.517Z,1.33
2022-09-09T13:43:28.184Z,1.10
2022-09-09T13:45:58.904Z,1.33
2022-09-09T13:48:27.648Z,1.33
2022-09-09T13:51:00.414Z,1.23
2022-09-09T13:53:28.595Z,1.40
2022-09-09T13:55:57.825Z,1.10
2022-09-09T13:58:27.453Z,1.33
2022-09-09T14:00:55.420Z,1.00
2022-09-09T14:03:23.261Z,1.00
2022-09-09T14:05:51.163Z,1.00
2022-09-09T14:08:29.759Z,1.10
2022-09-09T14:11:00.455Z,1.05
2022-09-09T14:13:31.426Z,1.05
2022-09-09T14:15:59.324Z,1.13
2022-09-09T14:18:27.135Z,1.00
2022-09-09T14:20:55.023Z,1.10
2022-09-09T14:23:23.580Z,1.10
2022-09-09T14:25:53.074Z,1.10
2022-09-09T14:28:34.241Z,1.40
2022-09-09T14:31:11.632Z,1.30
2022-09-09T14:33:39.426Z,1.13
2022-09-09T14:36:07.636Z,1.20
2022-09-09T14:38:40.521Z,1.23
2022-09-09T14:41:08.378Z,1.15
2022-09-09T14:43:36.129Z,1.25
2022-09-09T14:46:07.655Z,1.40
2022-09-09T14:48:37.086Z,1.38
2022-09-09T14:51:09.438Z,1.33
2022-09-09T14:53:37.458Z,0.95
2022-09-09T14:56:07.032Z,1.10
2022-09-09T14:58:35.710Z,1.20
2022-09-09T15:01:07.658Z,1.20
2022-09-09T15:03:38.188Z,0.85
2022-09-09T15:06:10.579Z,1.15
2022-09-09T15:08:42.402Z,1.20
2022-09-09T15:11:12.097Z,1.30
2022-09-09T15:13:41.121Z,1.27
2022-09-09T15:16:10.479Z,1.25
2022-09-09T15:18:41.161Z,1.50
2022-09-09T15:21:08.925Z,1.20
2022-09-09T15:23:37.269Z,0.98
2022-09-09T15:26:05.571Z,1.40
2022-09-09T15:28:38.111Z,1.05
2022-09-09T15:31:08.419Z,1.13
2022-09-09T15:33:37.718Z,1.20
2022-09-09T15:36:16.874Z,1.10
2022-09-09T15:38:44.916Z,1.10
2022-09-09T15:41:13.156Z,1.17
2022-09-09T15:43:41.471Z,1.45
2022-09-09T15:46:29.047Z,1.48
2022-09-09T15:48:57.606Z,1.40
2022-09-09T15:51:42.241Z,1.40
2022-09-09T15:54:13.208Z,1.63
2022-09-09T15:56:41.757Z,1.70
2022-09-09T15:59:09.530Z,1.27
2022-09-09T16:01:40.409Z,0.68
2022-09-09T16:04:08.386Z,0.80
2022-09-09T16:06:37.746Z,0.90
2022-09-09T16:09:07.012Z,1.00
2022-09-09T16:11:36.620Z,1.25
2022-09-09T16:14:04.959Z,1.00
2022-09-09T16:16:33.303Z,1.30
2022-09-09T16:19:02.920Z,1.13
2022-09-09T16:21:32.352Z,1.20
2022-09-09T16:24:03.279Z,1.00
2022-09-09T16:26:32.828Z,0.73
2022-09-09T16:29:01.437Z,0.80
2022-09-09T16:31:30.080Z,0.80
2022-09-09T16:33:58.861Z,1.10
2022-09-09T16:36:28.057Z,1.10
2022-09-09T16:38:58.233Z,0.90
2022-09-09T16:41:28.824Z,0.90
2022-09-09T16:43:57.284Z,1.20
2022-09-09T16:46:26.309Z,1.02
2022-09-09T16:48:55.676Z,0.80
2022-09-09T16:51:25.507Z,0.80
2022-09-09T16:53:53.902Z,1.17
2022-09-09T16:56:25.416Z,0.80
2022-09-09T16:58:56.573Z,0.63
2022-09-09T17:01:24.484Z,0.80
2022-09-09T17:04:00.045Z,1.08
2022-09-09T17:06:29.793Z,1.10
2022-09-09T17:08:58.321Z,1.35
2022-09-09T17:11:26.426Z,1.70
2022-09-09T17:13:56.384Z,1.88
2022-09-09T17:16:25.760Z,1.75
2022-09-09T17:18:54.158Z,2.10
2022-09-09T17:21:24.383Z,1.90
2022-09-09T17:23:52.491Z,1.83
2022-09-09T17:26:22.485Z,1.73
2022-09-09T17:28:50.368Z,2.00
2022-09-09T17:31:20.361Z,1.70
2022-09-09T17:33:50.338Z,1.58
2022-09-09T17:36:19.481Z,2.10
2022-09-09T17:38:47.836Z,1.98
2022-09-09T17:41:19.243Z,1.77
2022-09-09T17:43:48.040Z,1.85
2022-09-09T17:46:17.126Z,2.00
2022-09-09T17:48:46.503Z,2.10
2022-09-09T17:51:16.888Z,2.20
2022-09-09T17:53:46.427Z,2.53
2022-09-09T17:56:15.727Z,2.80
2022-09-09T17:58:45.239Z,3.20
2022-09-09T18:01:15.303Z,3.33
2022-09-09T18:03:44.536Z,3.65
2022-09-09T18:06:16.168Z,3.63
2022-09-09T18:08:49.619Z,3.60
2022-09-09T18:11:17.774Z,3.20
2022-09-09T18:13:49.915Z,2.65
2022-09-09T18:16:18.691Z,2.30
2022-09-09T18:18:46.731Z,2.10
2022-09-09T18:21:15.849Z,1.80
2022-09-09T18:23:46.922Z,1.98
2022-09-09T18:26:17.085Z,1.92
2022-09-09T18:28:48.400Z,1.52
2022-09-09T18:31:18.098Z,1.88
2022-09-09T18:33:49.043Z,1.80
2022-09-09T18:36:20.761Z,1.88
2022-09-09T18:38:48.842Z,1.90
2022-09-09T18:41:17.252Z,1.88
2022-09-09T18:43:45.737Z,1.70
2022-09-09T18:46:14.072Z,1.87
2022-09-09T18:48:41.868Z,1.73
2022-09-09T18:51:11.444Z,2.10
2022-09-09T18:53:41.287Z,1.90
2022-09-09T18:56:12.171Z,2.03
2022-09-09T18:58:40.663Z,1.63
2022-09-09T19:01:12.357Z,1.95
2022-09-09T19:03:40.210Z,1.60
2022-09-09T19:06:09.995Z,1.60
2022-09-09T19:08:40.377Z,2.00
2022-09-09T19:11:09.745Z,1.80
2022-09-09T19:13:38.219Z,1.73
2022-09-09T19:16:06.569Z,1.70
2022-09-09T19:18:34.712Z,1.60
2022-09-09T19:21:11.443Z,1.65
2022-09-09T19:23:41.347Z,1.88
2022-09-09T19:26:11.037Z,1.35
2022-09-09T19:28:40.138Z,1.40
2022-09-09T19:31:09.742Z,1.65
2022-09-09T19:33:37.940Z,1.40
2022-09-09T19:36:09.255Z,1.50
2022-09-09T19:38:37.132Z,1.55
2022-09-09T19:41:09.239Z,1.60
2022-09-09T19:43:37.597Z,1.70
2022-09-09T19:46:07.772Z,1.75
2022-09-09T19:48:37.474Z,1.75
2022-09-09T19:51:06.165Z,1.58
2022-09-09T19:53:35.861Z,1.60
2022-09-09T19:56:04.395Z,1.70
2022-09-09T19:58:34.917Z,1.63
2022-09-09T20:01:10.558Z,1.70
2022-09-09T20:03:39.655Z,1.80
2022-09-09T20:06:08.744Z,1.60
2022-09-09T20:08:37.892Z,1.70
2022-09-09T20:11:06.887Z,1.73
2022-09-09T20:13:38.867Z,1.55
2022-09-09T20:16:08.869Z,1.75
2022-09-09T20:18:38.416Z,1.60
2022-09-09T20:21:08.142Z,1.60
2022-09-09T20:23:37.231Z,1.80
2022-09-09T20:26:06.977Z,1.70
2022-09-09T20:28:38.172Z,1.80
2022-09-09T20:31:06.666Z,1.90
2022-09-09T20:33:35.798Z,1.92
2022-09-09T20:36:11.452Z,1.80
2022-09-09T20:38:42.653Z,2.13
2022-09-09T20:41:14.337Z,2.05
2022-09-09T20:43:49.278Z,1.90
2022-09-09T20:46:18.402Z,2.10
2022-09-09T20:48:46.349Z,1.98
2022-09-09T20:51:16.200Z,2.00
2022-09-09T20:53:44.469Z,1.60
2022-09-09T20:56:12.654Z,1.70
2022-09-09T20:58:40.513Z,1.67
2022-09-09T21:01:16.047Z,1.77
2022-09-09T21:03:44.560Z,1.63
2022-09-09T21:06:12.888Z,1.70
2022-09-09T21:08:41.117Z,1.95
2022-09-09T21:11:09.042Z,1.65
2022-09-09T21:13:38.676Z,1.63
2022-09-09T21:16:08.018Z,1.90
2022-09-09T21:18:37.618Z,1.73
2022-09-09T21:21:05.437Z,1.50
2022-09-09T21:23:33.184Z,1.70
2022-09-09T21:26:01.110Z,1.90
2022-09-09T21:28:28.845Z,2.20
2022-09-09T21:30:56.812Z,1.60
2022-09-09T21:33:28.165Z,1.93
2022-09-09T21:36:03.230Z,1.70
2022-09-09T21:38:31.163Z,1.80
2022-09-09T21:40:58.974Z,1.90
2022-09-09T21:43:26.708Z,1.95
2022-09-09T21:45:54.462Z,1.90
2022-09-09T21:48:23.737Z,2.10
2022-09-09T21:50:51.506Z,2.03
2022-09-09T21:53:20.724Z,1.80
2022-09-09T21:55:49.673Z,1.90
2022-09-09T21:58:18.246Z,2.10
2022-09-09T22:00:47.646Z,2.00
2022-09-09T22:03:17.152Z,2.10
2022-09-09T22:05:48.787Z,2.00
2022-09-09T22:08:21.164Z,2.33
2022-09-09T22:10:48.935Z,2.25
2022-09-09T22:13:18.016Z,2.50
2022-09-09T22:15:46.768Z,2.53
2022-09-09T22:18:15.986Z,2.40
2022-09-09T22:20:45.027Z,2.40
2022-09-09T22:23:13.917Z,2.80
2022-09-09T22:25:44.685Z,2.75
2022-09-09T22:28:12.496Z,2.80
2022-09-09T22:30:40.179Z,2.42
2022-09-09T22:33:08.030Z,2.60
2022-09-09T22:35:42.100Z,2.70
2022-09-09T22:38:10.137Z,2.60
2022-09-09T22:40:37.966Z,2.47
2022-09-09T22:43:08.192Z,2.65
2022-09-09T22:45:35.994Z,2.60
2022-09-09T22:48:04.831Z,2.55
2022-09-09T22:50:37.899Z,2.70
2022-09-09T22:53:09.541Z,2.80
2022-09-09T22:55:37.198Z,2.60
2022-09-09T22:58:05.110Z,2.90
2022-09-09T23:00:34.167Z,3.03
2022-09-09T23:03:01.973Z,2.85
2022-09-09T23:05:30.574Z,3.07
2022-09-09T23:07:58.754Z,2.92
2022-09-09T23:10:27.130Z,2.97
2022-09-09T23:12:56.657Z,2.70
2022-09-09T23:15:24.479Z,2.90
2022-09-09T23:17:55.707Z,2.70
2022-09-09T23:20:26.561Z,2.97
2022-09-09T23:22:54.324Z,2.95
2022-09-09T23:25:22.799Z,3.00
2022-09-09T23:27:50.709Z,2.70
2022-09-09T23:30:18.497Z,3.08
2022-09-09T23:32:46.954Z,3.08
2022-09-09T23:35:16.186Z,2.80
2022-09-09T23:37:43.990Z,3.05
2022-09-09T23:40:11.809Z,3.05
2022-09-09T23:42:39.557Z,3.00
2022-09-09T23:45:08.757Z,3.00
2022-09-09T23:47:36.549Z,2.80
2022-09-09T23:50:04.570Z,3.30
2022-09-09T23:52:33.617Z,2.90
2022-09-09T23:55:01.381Z,2.70
2022-09-09T23:57:29.113Z,2.93
2022-09-09T23:59:56.834Z,3.15
